sensor_id;sensor_type;location;lat;lon;timestamp;pressure;altitude;pressure_sealevel;temperature;humidity
10075;BME280;5076;42.680;23.288;2023-02-02T00:01:46;94995.38;;;4.38;90.43
10075;BME280;5076;42.680;23.288;2023-02-02T00:04:15;94995.38;;;4.38;90.78
10075;BME280;5076;42.680;23.288;2023-02-02T00:06:42;94995.59;;;4.37;91.57
10075;BME280;5076;42.680;23.288;2023-02-02T00:09:12;94993.19;;;4.35;92.20
10075;BME280;5076;42.680;23.288;2023-02-02T00:11:40;94983.56;;;4.29;92.89
10075;BME280;5076;42.680;23.288;2023-02-02T00:14:07;94980.00;;;4.23;92.51
10075;BME280;5076;42.680;23.288;2023-02-02T00:16:41;94993.47;;;4.27;92.03
10075;BME280;5076;42.680;23.288;2023-02-02T00:19:10;94986.25;;;4.22;92.66
10075;BME280;5076;42.680;23.288;2023-02-02T00:21:38;94998.31;;;4.23;92.84
10075;BME280;5076;42.680;23.288;2023-02-02T00:24:06;94989.59;;;4.30;92.84
10075;BME280;5076;42.680;23.288;2023-02-02T00:26:33;94993.22;;;4.29;93.35
10075;BME280;5076;42.680;23.288;2023-02-02T00:29:00;94995.63;;;4.30;92.69
10075;BME280;5076;42.680;23.288;2023-02-02T00:31:27;94986.03;;;4.24;94.03
10075;BME280;5076;42.680;23.288;2023-02-02T00:33:55;94999.78;;;4.13;94.41
10075;BME280;5076;42.680;23.288;2023-02-02T00:36:22;94995.44;;;4.00;95.91
10075;BME280;5076;42.680;23.288;2023-02-02T00:38:49;95003.94;;;3.96;97.00
10075;BME280;5076;42.680;23.288;2023-02-02T00:41:17;95015.03;;;3.91;98.01
10075;BME280;5076;42.680;23.288;2023-02-02T00:43:44;95017.56;;;4.04;96.87
10075;BME280;5076;42.680;23.288;2023-02-02T00:46:31;95015.22;;;3.96;98.52
10075;BME280;5076;42.680;23.288;2023-02-02T00:48:58;95012.13;;;4.06;99.25
10075;BME280;5076;42.680;23.288;2023-02-02T00:51:25;95007.06;;;4.11;100.00
10075;BME280;5076;42.680;23.288;2023-02-02T00:53:52;95011.44;;;4.17;100.00
10075;BME280;5076;42.680;23.288;2023-02-02T00:56:19;95009.81;;;4.16;100.00
10075;BME280;5076;42.680;23.288;2023-02-02T00:58:46;95008.22;;;4.15;100.00
10075;BME280;5076;42.680;23.288;2023-02-02T01:01:15;95006.59;;;4.20;100.00
10075;BME280;5076;42.680;23.288;2023-02-02T01:03:41;94992.75;;;4.13;100.00
10075;BME280;5076;42.680;23.288;2023-02-02T01:06:10;94989.97;;;4.08;100.00
10075;BME280;5076;42.680;23.288;2023-02-02T01:08:36;94975.59;;;3.93;100.00
10075;BME280;5076;42.680;23.288;2023-02-02T01:11:04;94984.41;;;3.98;100.00
10075;BME280;5076;42.680;23.288;2023-02-02T01:13:30;94972.41;;;3.91;100.00
10075;BME280;5076;42.680;23.288;2023-02-02T01:15:59;94970.84;;;3.83;100.00
10075;BME280;5076;42.680;23.288;2023-02-02T01:18:26;94978.31;;;3.79;100.00
10075;BME280;5076;42.680;23.288;2023-02-02T01:20:56;94974.69;;;3.80;100.00
10075;BME280;5076;42.680;23.288;2023-02-02T01:23:24;94965.41;;;3.84;100.00
10075;BME280;5076;42.680;23.288;2023-02-02T01:25:54;94969.00;;;3.90;99.64
10075;BME280;5076;42.680;23.288;2023-02-02T01:28:22;94976.44;;;3.86;99.54
10075;BME280;5076;42.680;23.288;2023-02-02T01:30:49;94961.56;;;3.87;99.05
10075;BME280;5076;42.680;23.288;2023-02-02T01:33:16;94971.84;;;3.82;99.62
10075;BME280;5076;42.680;23.288;2023-02-02T01:35:46;94969.03;;;3.83;100.00
10075;BME280;5076;42.680;23.288;2023-02-02T01:38:14;94962.88;;;3.71;100.00
10075;BME280;5076;42.680;23.288;2023-02-02T01:40:47;94957.06;;;3.69;100.00
10075;BME280;5076;42.680;23.288;2023-02-02T01:43:21;94966.28;;;3.72;100.00
10075;BME280;5076;42.680;23.288;2023-02-02T01:45:48;94961.13;;;3.65;100.00
10075;BME280;5076;42.680;23.288;2023-02-02T01:48:15;94959.88;;;3.68;100.00
10075;BME280;5076;42.680;23.288;2023-02-02T01:50:45;94954.09;;;3.66;100.00
10075;BME280;5076;42.680;23.288;2023-02-02T01:53:15;94947.81;;;3.67;100.00
10075;BME280;5076;42.680;23.288;2023-02-02T01:55:46;94944.88;;;3.57;100.00
10075;BME280;5076;42.680;23.288;2023-02-02T01:58:17;94945.94;;;3.49;100.00
10075;BME280;5076;42.680;23.288;2023-02-02T02:00:44;94941.94;;;3.46;100.00
10075;BME280;5076;42.680;23.288;2023-02-02T02:03:13;94943.91;;;3.51;100.00
10075;BME280;5076;42.680;23.288;2023-02-02T02:05:48;94934.72;;;3.42;100.00
10075;BME280;5076;42.680;23.288;2023-02-02T02:08:18;94933.69;;;3.49;100.00
10075;BME280;5076;42.680;23.288;2023-02-02T02:10:47;94939.72;;;3.50;100.00
10075;BME280;5076;42.680;23.288;2023-02-02T02:13:14;94942.75;;;3.40;100.00
10075;BME280;5076;42.680;23.288;2023-02-02T02:15:46;94946.16;;;3.47;100.00
10075;BME280;5076;42.680;23.288;2023-02-02T02:18:42;94945.13;;;3.48;100.00
10075;BME280;5076;42.680;23.288;2023-02-02T02:21:24;94931.28;;;3.48;100.00
10075;BME280;5076;42.680;23.288;2023-02-02T02:28:02;94932.31;;;3.40;100.00
10075;BME280;5076;42.680;23.288;2023-02-02T02:30:40;94941.00;;;3.34;100.00
10075;BME280;5076;42.680;23.288;2023-02-02T02:33:14;94953.25;;;3.34;100.00
10075;BME280;5076;42.680;23.288;2023-02-02T02:35:53;94942.56;;;3.42;100.00
10075;BME280;5076;42.680;23.288;2023-02-02T02:38:28;94937.38;;;3.35;100.00
10075;BME280;5076;42.680;23.288;2023-02-02T02:41:01;94937.00;;;3.32;100.00
10075;BME280;5076;42.680;23.288;2023-02-02T02:43:31;94934.00;;;3.28;100.00
10075;BME280;5076;42.680;23.288;2023-02-02T02:46:01;94952.47;;;3.33;100.00
10075;BME280;5076;42.680;23.288;2023-02-02T02:48:29;94939.56;;;3.38;100.00
10075;BME280;5076;42.680;23.288;2023-02-02T02:51:04;94951.66;;;3.33;100.00
10075;BME280;5076;42.680;23.288;2023-02-02T02:53:32;94934.19;;;3.33;100.00
10075;BME280;5076;42.680;23.288;2023-02-02T02:56:04;94941.22;;;3.33;100.00
10075;BME280;5076;42.680;23.288;2023-02-02T02:58:41;94946.34;;;3.46;100.00
10075;BME280;5076;42.680;23.288;2023-02-02T03:01:16;94943.94;;;3.44;100.00
10075;BME280;5076;42.680;23.288;2023-02-02T03:03:59;94938.75;;;3.38;100.00
10075;BME280;5076;42.680;23.288;2023-02-02T03:06:35;94943.28;;;3.17;100.00
10075;BME280;5076;42.680;23.288;2023-02-02T03:09:07;94941.22;;;2.88;100.00
10075;BME280;5076;42.680;23.288;2023-02-02T03:11:36;94945.69;;;2.61;100.00
10075;BME280;5076;42.680;23.288;2023-02-02T03:14:03;94942.13;;;2.42;100.00
10075;BME280;5076;42.680;23.288;2023-02-02T03:16:34;94952.38;;;2.18;100.00
10075;BME280;5076;42.680;23.288;2023-02-02T03:19:03;94942.97;;;2.03;100.00
10075;BME280;5076;42.680;23.288;2023-02-02T03:21:31;94940.56;;;2.02;100.00
10075;BME280;5076;42.680;23.288;2023-02-02T03:23:58;94940.38;;;1.97;100.00
10075;BME280;5076;42.680;23.288;2023-02-02T03:26:25;94933.75;;;2.01;100.00
10075;BME280;5076;42.680;23.288;2023-02-02T03:28:54;94940.34;;;2.17;100.00
10075;BME280;5076;42.680;23.288;2023-02-02T03:31:22;94931.94;;;2.08;100.00
10075;BME280;5076;42.680;23.288;2023-02-02T03:33:51;94937.56;;;2.11;100.00
10075;BME280;5076;42.680;23.288;2023-02-02T03:36:19;94940.69;;;2.53;100.00
10075;BME280;5076;42.680;23.288;2023-02-02T03:38:46;94936.06;;;2.62;100.00
10075;BME280;5076;42.680;23.288;2023-02-02T03:41:13;94931.88;;;2.54;100.00
10075;BME280;5076;42.680;23.288;2023-02-02T03:43:40;94928.22;;;2.62;100.00
10075;BME280;5076;42.680;23.288;2023-02-02T03:46:06;94935.59;;;2.78;100.00
10075;BME280;5076;42.680;23.288;2023-02-02T03:48:35;94933.53;;;2.93;100.00
10075;BME280;5076;42.680;23.288;2023-02-02T03:51:05;94930.72;;;2.95;100.00
10075;BME280;5076;42.680;23.288;2023-02-02T03:53:33;94926.69;;;2.99;100.00
10075;BME280;5076;42.680;23.288;2023-02-02T03:55:59;94935.53;;;2.98;100.00
10075;BME280;5076;42.680;23.288;2023-02-02T03:58:26;94941.00;;;2.83;100.00
10075;BME280;5076;42.680;23.288;2023-02-02T04:00:53;94945.47;;;2.69;100.00
10075;BME280;5076;42.680;23.288;2023-02-02T04:03:24;94940.41;;;2.88;100.00
10075;BME280;5076;42.680;23.288;2023-02-02T04:05:51;94946.28;;;2.63;100.00
10075;BME280;5076;42.680;23.288;2023-02-02T04:08:18;94959.38;;;2.43;100.00
10075;BME280;5076;42.680;23.288;2023-02-02T04:10:46;94959.00;;;2.27;100.00
10075;BME280;5076;42.680;23.288;2023-02-02T04:13:13;94949.19;;;2.02;100.00
10075;BME280;5076;42.680;23.288;2023-02-02T04:15:39;94960.44;;;1.83;100.00
10075;BME280;5076;42.680;23.288;2023-02-02T04:18:06;94963.59;;;1.65;100.00
10075;BME280;5076;42.680;23.288;2023-02-02T04:20:33;94961.97;;;1.45;100.00
10075;BME280;5076;42.680;23.288;2023-02-02T04:23:00;94973.56;;;1.35;100.00
10075;BME280;5076;42.680;23.288;2023-02-02T04:25:27;94967.72;;;1.27;100.00
10075;BME280;5076;42.680;23.288;2023-02-02T04:27:55;94957.88;;;1.22;100.00
10075;BME280;5076;42.680;23.288;2023-02-02T04:30:22;94968.06;;;1.11;100.00
10075;BME280;5076;42.680;23.288;2023-02-02T04:32:50;94956.16;;;1.49;100.00
10075;BME280;5076;42.680;23.288;2023-02-02T04:35:17;94956.81;;;1.97;100.00
10075;BME280;5076;42.680;23.288;2023-02-02T04:37:44;94949.41;;;1.94;100.00
10075;BME280;5076;42.680;23.288;2023-02-02T04:40:12;94949.19;;;1.96;100.00
10075;BME280;5076;42.680;23.288;2023-02-02T04:42:39;94960.41;;;2.23;100.00
10075;BME280;5076;42.680;23.288;2023-02-02T04:45:08;94953.13;;;2.58;100.00
10075;BME280;5076;42.680;23.288;2023-02-02T04:47:35;94962.75;;;2.64;100.00
10075;BME280;5076;42.680;23.288;2023-02-02T04:50:01;94956.66;;;2.90;100.00
10075;BME280;5076;42.680;23.288;2023-02-02T04:52:28;94963.84;;;2.94;100.00
10075;BME280;5076;42.680;23.288;2023-02-02T04:54:55;94953.00;;;2.97;100.00
10075;BME280;5076;42.680;23.288;2023-02-02T04:57:22;94961.03;;;2.96;100.00
10075;BME280;5076;42.680;23.288;2023-02-02T04:59:49;94951.66;;;2.88;100.00
10075;BME280;5076;42.680;23.288;2023-02-02T05:02:17;94953.47;;;2.88;100.00
10075;BME280;5076;42.680;23.288;2023-02-02T05:04:45;94958.88;;;2.86;100.00
10075;BME280;5076;42.680;23.288;2023-02-02T05:07:12;94954.66;;;2.78;100.00
10075;BME280;5076;42.680;23.288;2023-02-02T05:09:39;94949.69;;;2.70;100.00
10075;BME280;5076;42.680;23.288;2023-02-02T05:12:06;94958.72;;;2.74;100.00
10075;BME280;5076;42.680;23.288;2023-02-02T05:14:33;94964.09;;;2.86;100.00
10075;BME280;5076;42.680;23.288;2023-02-02T05:16:59;94959.47;;;2.88;100.00
10075;BME280;5076;42.680;23.288;2023-02-02T05:19:27;94970.53;;;2.83;100.00
10075;BME280;5076;42.680;23.288;2023-02-02T05:21:54;94963.34;;;2.72;100.00
10075;BME280;5076;42.680;23.288;2023-02-02T05:24:21;94959.94;;;2.72;100.00
10075;BME280;5076;42.680;23.288;2023-02-02T05:26:48;94964.75;;;2.68;100.00
10075;BME280;5076;42.680;23.288;2023-02-02T05:29:15;94943.88;;;2.75;100.00
10075;BME280;5076;42.680;23.288;2023-02-02T05:31:41;94950.44;;;2.84;100.00
10075;BME280;5076;42.680;23.288;2023-02-02T05:34:08;94961.66;;;2.91;100.00
10075;BME280;5076;42.680;23.288;2023-02-02T05:36:37;94962.47;;;2.92;100.00
10075;BME280;5076;42.680;23.288;2023-02-02T05:39:04;94960.66;;;2.92;100.00
10075;BME280;5076;42.680;23.288;2023-02-02T05:41:30;94960.25;;;2.95;100.00
10075;BME280;5076;42.680;23.288;2023-02-02T05:43:58;94964.44;;;3.03;100.00
10075;BME280;5076;42.680;23.288;2023-02-02T05:46:24;94968.22;;;3.07;100.00
10075;BME280;5076;42.680;23.288;2023-02-02T05:48:52;94961.59;;;3.11;100.00
10075;BME280;5076;42.680;23.288;2023-02-02T05:51:21;94960.94;;;3.22;100.00
10075;BME280;5076;42.680;23.288;2023-02-02T05:53:50;94964.53;;;3.28;100.00
10075;BME280;5076;42.680;23.288;2023-02-02T05:56:17;94961.69;;;3.36;100.00
10075;BME280;5076;42.680;23.288;2023-02-02T05:58:44;94968.66;;;3.48;100.00
10075;BME280;5076;42.680;23.288;2023-02-02T06:01:12;94969.97;;;3.64;99.30
10075;BME280;5076;42.680;23.288;2023-02-02T06:03:39;94971.41;;;3.53;100.00
10075;BME280;5076;42.680;23.288;2023-02-02T06:06:06;94966.41;;;3.52;100.00
10075;BME280;5076;42.680;23.288;2023-02-02T06:08:33;94967.94;;;3.66;99.81
10075;BME280;5076;42.680;23.288;2023-02-02T06:11:08;94973.00;;;3.61;100.00
10075;BME280;5076;42.680;23.288;2023-02-02T06:13:35;94984.88;;;3.57;100.00
10075;BME280;5076;42.680;23.288;2023-02-02T06:16:02;94980.00;;;3.29;100.00
10075;BME280;5076;42.680;23.288;2023-02-02T06:18:29;94976.31;;;2.92;100.00
10075;BME280;5076;42.680;23.288;2023-02-02T06:20:56;94995.81;;;2.76;100.00
10075;BME280;5076;42.680;23.288;2023-02-02T06:23:24;94989.03;;;2.62;100.00
10075;BME280;5076;42.680;23.288;2023-02-02T06:25:51;94993.16;;;3.03;100.00
10075;BME280;5076;42.680;23.288;2023-02-02T06:28:19;94993.97;;;3.48;100.00
10075;BME280;5076;42.680;23.288;2023-02-02T06:30:46;94994.03;;;3.73;100.00
10075;BME280;5076;42.680;23.288;2023-02-02T06:33:13;94990.81;;;4.02;99.33
10075;BME280;5076;42.680;23.288;2023-02-02T06:35:39;94995.53;;;4.18;97.67
10075;BME280;5076;42.680;23.288;2023-02-02T06:38:06;94999.75;;;4.19;97.34
10075;BME280;5076;42.680;23.288;2023-02-02T06:40:33;95002.56;;;4.18;96.78
10075;BME280;5076;42.680;23.288;2023-02-02T06:43:02;95010.25;;;4.13;96.58
10075;BME280;5076;42.680;23.288;2023-02-02T06:45:31;95011.97;;;4.26;95.95
10075;BME280;5076;42.680;23.288;2023-02-02T06:47:58;94999.97;;;4.43;94.87
10075;BME280;5076;42.680;23.288;2023-02-02T06:50:27;94989.94;;;4.40;94.90
10075;BME280;5076;42.680;23.288;2023-02-02T06:52:54;94986.59;;;4.51;95.39
10075;BME280;5076;42.680;23.288;2023-02-02T06:55:21;94999.84;;;4.56;94.20
10075;BME280;5076;42.680;23.288;2023-02-02T06:57:48;95013.44;;;4.65;93.84
10075;BME280;5076;42.680;23.288;2023-02-02T07:00:21;95012.00;;;4.69;93.33
10075;BME280;5076;42.680;23.288;2023-02-02T07:02:49;94994.91;;;4.66;92.86
10075;BME280;5076;42.680;23.288;2023-02-02T07:05:16;95021.84;;;4.73;92.95
10075;BME280;5076;42.680;23.288;2023-02-02T07:07:45;95017.34;;;4.80;91.83
10075;BME280;5076;42.680;23.288;2023-02-02T07:10:12;95018.56;;;4.78;92.14
10075;BME280;5076;42.680;23.288;2023-02-02T07:12:39;95008.41;;;4.88;91.51
10075;BME280;5076;42.680;23.288;2023-02-02T07:15:07;95011.97;;;4.93;91.10
10075;BME280;5076;42.680;23.288;2023-02-02T07:17:34;95010.94;;;4.94;90.66
10075;BME280;5076;42.680;23.288;2023-02-02T07:20:03;95016.78;;;4.97;91.57
10075;BME280;5076;42.680;23.288;2023-02-02T07:22:30;95014.31;;;5.02;90.76
10075;BME280;5076;42.680;23.288;2023-02-02T07:24:57;95014.53;;;5.00;90.40
10075;BME280;5076;42.680;23.288;2023-02-02T07:27:23;95019.19;;;4.98;89.98
10075;BME280;5076;42.680;23.288;2023-02-02T07:29:51;95029.56;;;5.05;90.83
10075;BME280;5076;42.680;23.288;2023-02-02T07:32:18;95018.66;;;5.08;89.61
10075;BME280;5076;42.680;23.288;2023-02-02T07:34:45;95025.81;;;5.01;90.48
10075;BME280;5076;42.680;23.288;2023-02-02T07:37:13;95021.50;;;5.06;90.37
10075;BME280;5076;42.680;23.288;2023-02-02T07:39:40;95024.06;;;5.13;90.04
10075;BME280;5076;42.680;23.288;2023-02-02T07:42:10;95026.63;;;5.19;89.82
10075;BME280;5076;42.680;23.288;2023-02-02T07:44:37;95016.63;;;5.28;89.02
10075;BME280;5076;42.680;23.288;2023-02-02T07:47:04;95011.75;;;5.32;88.86
10075;BME280;5076;42.680;23.288;2023-02-02T07:49:31;95009.34;;;5.30;88.31
10075;BME280;5076;42.680;23.288;2023-02-02T07:51:58;94997.84;;;5.31;88.42
10075;BME280;5076;42.680;23.288;2023-02-02T07:54:26;94987.38;;;5.31;88.85
10075;BME280;5076;42.680;23.288;2023-02-02T07:56:53;94985.34;;;5.33;88.50
10075;BME280;5076;42.680;23.288;2023-02-02T07:59:19;94996.53;;;5.40;88.00
10075;BME280;5076;42.680;23.288;2023-02-02T08:01:46;95000.47;;;5.49;88.29
10075;BME280;5076;42.680;23.288;2023-02-02T08:04:13;94983.22;;;5.72;87.04
10075;BME280;5076;42.680;23.288;2023-02-02T08:06:41;94987.78;;;5.94;86.00
10075;BME280;5076;42.680;23.288;2023-02-02T08:09:08;94984.53;;;6.22;84.96
10075;BME280;5076;42.680;23.288;2023-02-02T08:11:37;94988.63;;;6.42;84.50
10075;BME280;5076;42.680;23.288;2023-02-02T08:14:04;94985.66;;;6.26;84.70
10075;BME280;5076;42.680;23.288;2023-02-02T08:16:32;94969.25;;;6.31;85.71
10075;BME280;5076;42.680;23.288;2023-02-02T08:18:59;94982.47;;;6.24;86.16
10075;BME280;5076;42.680;23.288;2023-02-02T08:21:26;94976.00;;;5.97;87.36
10075;BME280;5076;42.680;23.288;2023-02-02T08:23:53;94969.13;;;5.84;87.47
10075;BME280;5076;42.680;23.288;2023-02-02T08:26:22;94977.75;;;6.03;87.80
10075;BME280;5076;42.680;23.288;2023-02-02T08:28:54;94976.47;;;5.94;86.64
10075;BME280;5076;42.680;23.288;2023-02-02T08:31:23;94972.47;;;5.91;86.51
10075;BME280;5076;42.680;23.288;2023-02-02T08:33:52;94980.41;;;6.26;86.34
10075;BME280;5076;42.680;23.288;2023-02-02T08:36:21;94971.63;;;6.09;86.61
10075;BME280;5076;42.680;23.288;2023-02-02T08:38:49;94955.56;;;6.41;86.45
10075;BME280;5076;42.680;23.288;2023-02-02T08:41:18;94982.63;;;6.41;86.48
10075;BME280;5076;42.680;23.288;2023-02-02T08:43:45;94965.59;;;6.44;87.22
10075;BME280;5076;42.680;23.288;2023-02-02T08:46:15;94950.75;;;6.49;87.39
10075;BME280;5076;42.680;23.288;2023-02-02T08:48:42;94960.81;;;6.64;86.92
10075;BME280;5076;42.680;23.288;2023-02-02T08:51:10;94948.00;;;6.44;87.51
10075;BME280;5076;42.680;23.288;2023-02-02T08:53:38;94945.06;;;6.41;88.56
10075;BME280;5076;42.680;23.288;2023-02-02T08:56:08;94942.28;;;6.12;88.97
10075;BME280;5076;42.680;23.288;2023-02-02T08:58:34;94946.63;;;6.18;89.34
10075;BME280;5076;42.680;23.288;2023-02-02T09:01:05;94971.78;;;6.38;88.92
10075;BME280;5076;42.680;23.288;2023-02-02T09:03:34;94943.00;;;6.43;89.29
10075;BME280;5076;42.680;23.288;2023-02-02T09:06:04;94937.41;;;6.62;88.85
10075;BME280;5076;42.680;23.288;2023-02-02T09:08:31;94944.16;;;6.70;88.47
10075;BME280;5076;42.680;23.288;2023-02-02T09:11:05;94934.63;;;6.92;87.99
10075;BME280;5076;42.680;23.288;2023-02-02T09:13:32;94930.25;;;7.10;87.07
10075;BME280;5076;42.680;23.288;2023-02-02T09:15:59;94941.38;;;7.00;87.66
10075;BME280;5076;42.680;23.288;2023-02-02T09:18:26;94935.41;;;7.04;87.03
10075;BME280;5076;42.680;23.288;2023-02-02T09:20:58;94926.97;;;7.02;87.26
10075;BME280;5076;42.680;23.288;2023-02-02T09:23:25;94926.94;;;7.14;87.17
10075;BME280;5076;42.680;23.288;2023-02-02T09:25:52;94927.84;;;7.08;86.68
10075;BME280;5076;42.680;23.288;2023-02-02T09:28:19;94933.75;;;7.27;87.27
10075;BME280;5076;42.680;23.288;2023-02-02T09:30:46;94932.56;;;7.34;86.22
10075;BME280;5076;42.680;23.288;2023-02-02T09:33:12;94922.25;;;7.16;85.94
10075;BME280;5076;42.680;23.288;2023-02-02T09:35:39;94909.13;;;7.45;85.29
10075;BME280;5076;42.680;23.288;2023-02-02T09:38:07;94915.28;;;7.67;84.96
10075;BME280;5076;42.680;23.288;2023-02-02T09:40:34;94918.13;;;7.77;84.17
10075;BME280;5076;42.680;23.288;2023-02-02T09:43:06;94914.22;;;7.51;83.93
10075;BME280;5076;42.680;23.288;2023-02-02T09:45:42;94903.81;;;7.73;84.58
10075;BME280;5076;42.680;23.288;2023-02-02T09:48:22;94895.78;;;8.13;83.57
10075;BME280;5076;42.680;23.288;2023-02-02T09:50:53;94900.25;;;8.29;80.99
10075;BME280;5076;42.680;23.288;2023-02-02T09:53:29;94907.34;;;8.12;81.17
10075;BME280;5076;42.680;23.288;2023-02-02T09:56:05;94897.47;;;8.02;79.92
10075;BME280;5076;42.680;23.288;2023-02-02T09:58:35;94896.69;;;8.02;80.25
10075;BME280;5076;42.680;23.288;2023-02-02T10:01:08;94888.47;;;8.15;79.50
10075;BME280;5076;42.680;23.288;2023-02-02T10:03:41;94895.16;;;8.23;78.69
10075;BME280;5076;42.680;23.288;2023-02-02T10:06:17;94884.16;;;8.42;78.32
10075;BME280;5076;42.680;23.288;2023-02-02T10:08:51;94886.38;;;8.51;78.56
10075;BME280;5076;42.680;23.288;2023-02-02T10:11:28;94891.06;;;8.65;77.86
10075;BME280;5076;42.680;23.288;2023-02-02T10:14:01;94872.19;;;8.52;77.25
10075;BME280;5076;42.680;23.288;2023-02-02T10:16:33;94878.03;;;8.97;77.33
10075;BME280;5076;42.680;23.288;2023-02-02T10:19:02;94865.81;;;8.91;76.34
10075;BME280;5076;42.680;23.288;2023-02-02T10:21:34;94873.59;;;9.03;75.57
10075;BME280;5076;42.680;23.288;2023-02-02T10:24:14;94861.66;;;8.95;74.75
10075;BME280;5076;42.680;23.288;2023-02-02T10:26:45;94882.75;;;8.95;74.92
10075;BME280;5076;42.680;23.288;2023-02-02T10:29:15;94866.44;;;8.76;74.58
10075;BME280;5076;42.680;23.288;2023-02-02T10:31:48;94872.03;;;8.80;75.34
10075;BME280;5076;42.680;23.288;2023-02-02T10:34:23;94856.94;;;8.75;75.25
10075;BME280;5076;42.680;23.288;2023-02-02T10:37:15;94856.34;;;9.39;74.39
10075;BME280;5076;42.680;23.288;2023-02-02T10:40:03;94848.66;;;8.67;73.63
10075;BME280;5076;42.680;23.288;2023-02-02T10:42:41;94828.38;;;8.45;75.27
10075;BME280;5076;42.680;23.288;2023-02-02T10:45:31;94818.88;;;8.44;75.63
10075;BME280;5076;42.680;23.288;2023-02-02T10:47:59;94811.22;;;8.26;74.77
10075;BME280;5076;42.680;23.288;2023-02-02T10:50:25;94808.50;;;8.55;76.22
10075;BME280;5076;42.680;23.288;2023-02-02T10:52:55;94807.22;;;8.40;74.79
10075;BME280;5076;42.680;23.288;2023-02-02T10:55:31;94789.78;;;8.34;75.20
10075;BME280;5076;42.680;23.288;2023-02-02T10:58:13;94789.78;;;8.56;74.31
10075;BME280;5076;42.680;23.288;2023-02-02T11:00:47;94790.50;;;8.73;74.26
10075;BME280;5076;42.680;23.288;2023-02-02T11:03:16;94786.81;;;8.69;73.97
10075;BME280;5076;42.680;23.288;2023-02-02T11:05:45;94793.91;;;8.69;73.85
10075;BME280;5076;42.680;23.288;2023-02-02T11:08:32;94794.69;;;8.69;73.98
10075;BME280;5076;42.680;23.288;2023-02-02T11:11:10;94785.94;;;8.86;74.34
10075;BME280;5076;42.680;23.288;2023-02-02T11:13:41;94792.03;;;8.91;72.26
10075;BME280;5076;42.680;23.288;2023-02-02T11:16:20;94784.03;;;8.81;72.23
10075;BME280;5076;42.680;23.288;2023-02-02T11:18:48;94780.97;;;8.67;71.49
10075;BME280;5076;42.680;23.288;2023-02-02T11:21:18;94779.50;;;8.76;71.90
10075;BME280;5076;42.680;23.288;2023-02-02T11:23:53;94764.81;;;8.37;71.91
10075;BME280;5076;42.680;23.288;2023-02-02T11:26:22;94768.34;;;8.69;72.68
10075;BME280;5076;42.680;23.288;2023-02-02T11:28:50;94760.31;;;8.81;71.47
10075;BME280;5076;42.680;23.288;2023-02-02T11:31:35;94754.38;;;8.47;71.15
10075;BME280;5076;42.680;23.288;2023-02-02T11:34:20;94755.66;;;8.66;71.72
10075;BME280;5076;42.680;23.288;2023-02-02T11:37:02;94752.41;;;8.81;71.32
10075;BME280;5076;42.680;23.288;2023-02-02T11:39:35;94750.50;;;8.76;71.43
10075;BME280;5076;42.680;23.288;2023-02-02T11:42:10;94745.78;;;8.78;71.04
10075;BME280;5076;42.680;23.288;2023-02-02T11:44:39;94746.47;;;8.69;71.44
10075;BME280;5076;42.680;23.288;2023-02-02T11:47:17;94743.78;;;9.17;70.73
10075;BME280;5076;42.680;23.288;2023-02-02T11:49:45;94735.94;;;9.23;69.75
10075;BME280;5076;42.680;23.288;2023-02-02T11:52:17;94736.56;;;9.35;70.24
10075;BME280;5076;42.680;23.288;2023-02-02T11:54:47;94742.50;;;9.20;71.10
10075;BME280;5076;42.680;23.288;2023-02-02T11:57:17;94725.75;;;9.36;70.22
10075;BME280;5076;42.680;23.288;2023-02-02T11:59:45;94726.00;;;9.30;70.37
10075;BME280;5076;42.680;23.288;2023-02-02T12:02:30;94720.84;;;9.50;69.64
10075;BME280;5076;42.680;23.288;2023-02-02T12:05:34;94729.19;;;9.37;69.56
10075;BME280;5076;42.680;23.288;2023-02-02T12:08:01;94721.69;;;9.56;70.18
10075;BME280;5076;42.680;23.288;2023-02-02T12:10:33;94722.69;;;9.49;70.18
10075;BME280;5076;42.680;23.288;2023-02-02T12:13:06;94737.72;;;9.49;69.63
10075;BME280;5076;42.680;23.288;2023-02-02T12:15:51;94718.53;;;9.22;70.12
10075;BME280;5076;42.680;23.288;2023-02-02T12:18:36;94722.88;;;8.79;71.32
10075;BME280;5076;42.680;23.288;2023-02-02T12:21:05;94727.28;;;8.73;71.88
10075;BME280;5076;42.680;23.288;2023-02-02T12:23:44;94727.50;;;8.67;71.52
10075;BME280;5076;42.680;23.288;2023-02-02T12:26:20;94713.78;;;8.65;71.16
10075;BME280;5076;42.680;23.288;2023-02-02T12:29:02;94729.63;;;8.70;70.48
10075;BME280;5076;42.680;23.288;2023-02-02T12:31:41;94733.91;;;8.76;66.87
10075;BME280;5076;42.680;23.288;2023-02-02T12:34:25;94742.19;;;8.63;64.91
10075;BME280;5076;42.680;23.288;2023-02-02T12:37:01;94734.91;;;8.48;64.90
10075;BME280;5076;42.680;23.288;2023-02-02T12:39:43;94726.69;;;8.44;65.48
10075;BME280;5076;42.680;23.288;2023-02-02T12:42:27;94737.44;;;8.38;66.64
10075;BME280;5076;42.680;23.288;2023-02-02T12:45:13;94735.88;;;8.42;66.78
10075;BME280;5076;42.680;23.288;2023-02-02T12:47:50;94740.34;;;8.41;67.22
10075;BME280;5076;42.680;23.288;2023-02-02T12:50:29;94733.56;;;8.45;68.60
10075;BME280;5076;42.680;23.288;2023-02-02T12:53:10;94726.38;;;8.41;68.67
10075;BME280;5076;42.680;23.288;2023-02-02T12:55:45;94731.03;;;8.56;68.54
10075;BME280;5076;42.680;23.288;2023-02-02T12:58:21;94736.56;;;8.32;67.99
10075;BME280;5076;42.680;23.288;2023-02-02T13:01:08;94722.75;;;8.25;68.36
10075;BME280;5076;42.680;23.288;2023-02-02T13:03:56;94722.81;;;8.30;68.48
10075;BME280;5076;42.680;23.288;2023-02-02T13:06:49;94733.78;;;8.22;68.15
10075;BME280;5076;42.680;23.288;2023-02-02T13:09:26;94722.50;;;8.27;67.83
10075;BME280;5076;42.680;23.288;2023-02-02T13:11:58;94719.72;;;8.33;67.92
10075;BME280;5076;42.680;23.288;2023-02-02T13:14:29;94718.25;;;8.42;67.74
10075;BME280;5076;42.680;23.288;2023-02-02T13:17:04;94731.78;;;8.51;68.06
10075;BME280;5076;42.680;23.288;2023-02-02T13:19:37;94721.13;;;8.63;67.54
10075;BME280;5076;42.680;23.288;2023-02-02T13:22:09;94727.84;;;8.75;67.48
10075;BME280;5076;42.680;23.288;2023-02-02T13:24:39;94705.63;;;8.66;67.19
10075;BME280;5076;42.680;23.288;2023-02-02T13:27:11;94716.09;;;8.61;67.02
10075;BME280;5076;42.680;23.288;2023-02-02T13:29:43;94719.03;;;8.43;67.02